sensor_id;sensor_type;location;lat;lon;timestamp;P1;durP1;ratioP1;P2;durP2;ratioP2
46006;SDS011;31738;50.188;8.524;2023-07-13T00:01:18;4.65;;;1.23;;
46006;SDS011;31738;50.188;8.524;2023-07-13T00:03:44;5.75;;;1.10;;
46006;SDS011;31738;50.188;8.524;2023-07-13T00:06:09;4.97;;;1.27;;
46006;SDS011;31738;50.188;8.524;2023-07-13T00:08:35;3.40;;;1.20;;
46006;SDS011;31738;50.188;8.524;2023-07-13T00:11:01;6.60;;;1.15;;
46006;SDS011;31738;50.188;8.524;2023-07-13T00:13:28;1.92;;;0.90;;
46006;SDS011;31738;50.188;8.524;2023-07-13T00:15:54;5.82;;;1.60;;
46006;SDS011;31738;50.188;8.524;2023-07-13T00:18:21;5.57;;;1.00;;
46006;SDS011;31738;50.188;8.524;2023-07-13T00:20:47;6.95;;;1.50;;
46006;SDS011;31738;50.188;8.524;2023-07-13T00:23:13;5.30;;;1.10;;
46006;SDS011;31738;50.188;8.524;2023-07-13T00:25:39;5.68;;;1.38;;
46006;SDS011;31738;50.188;8.524;2023-07-13T00:28:05;3.72;;;1.25;;
46006;SDS011;31738;50.188;8.524;2023-07-13T00:30:30;7.00;;;1.15;;
46006;SDS011;31738;50.188;8.524;2023-07-13T00:32:57;9.07;;;1.48;;
46006;SDS011;31738;50.188;8.524;2023-07-13T00:35:22;3.42;;;1.20;;
46006;SDS011;31738;50.188;8.524;2023-07-13T00:37:48;5.20;;;1.63;;
46006;SDS011;31738;50.188;8.524;2023-07-13T00:40:14;3.85;;;1.33;;
46006;SDS011;31738;50.188;8.524;2023-07-13T00:42:41;3.10;;;1.08;;
46006;SDS011;31738;50.188;8.524;2023-07-13T00:46:11;6.60;;;1.50;;
46006;SDS011;31738;50.188;8.524;2023-07-13T00:47:53;4.20;;;0.93;;
46006;SDS011;31738;50.188;8.524;2023-07-13T00:50:21;3.47;;;1.15;;
46006;SDS011;31738;50.188;8.524;2023-07-13T00:52:48;6.10;;;1.42;;
46006;SDS011;31738;50.188;8.524;2023-07-13T00:55:16;6.72;;;1.52;;
46006;SDS011;31738;50.188;8.524;2023-07-13T00:57:43;4.93;;;1.30;;
46006;SDS011;31738;50.188;8.524;2023-07-13T01:00:09;7.80;;;1.30;;
46006;SDS011;31738;50.188;8.524;2023-07-13T01:02:37;4.68;;;1.30;;
46006;SDS011;31738;50.188;8.524;2023-07-13T01:05:11;7.45;;;1.33;;
46006;SDS011;31738;50.188;8.524;2023-07-13T01:07:39;3.07;;;1.20;;
46006;SDS011;31738;50.188;8.524;2023-07-13T01:10:06;5.15;;;1.50;;
46006;SDS011;31738;50.188;8.524;2023-07-13T01:12:32;7.50;;;1.77;;
46006;SDS011;31738;50.188;8.524;2023-07-13T01:14:58;5.45;;;1.73;;
46006;SDS011;31738;50.188;8.524;2023-07-13T01:17:25;4.70;;;1.30;;
46006;SDS011;31738;50.188;8.524;2023-07-13T01:19:52;4.35;;;1.45;;
46006;SDS011;31738;50.188;8.524;2023-07-13T01:22:18;3.97;;;1.23;;
46006;SDS011;31738;50.188;8.524;2023-07-13T01:24:45;4.50;;;1.35;;
46006;SDS011;31738;50.188;8.524;2023-07-13T01:27:13;6.07;;;1.05;;
46006;SDS011;31738;50.188;8.524;2023-07-13T01:29:46;3.33;;;1.20;;
46006;SDS011;31738;50.188;8.524;2023-07-13T01:32:14;6.43;;;1.65;;
46006;SDS011;31738;50.188;8.524;2023-07-13T01:34:46;4.63;;;1.17;;
46006;SDS011;31738;50.188;8.524;2023-07-13T01:37:12;3.75;;;1.05;;
46006;SDS011;31738;50.188;8.524;2023-07-13T01:39:38;4.18;;;1.10;;
46006;SDS011;31738;50.188;8.524;2023-07-13T01:42:04;4.80;;;1.10;;
46006;SDS011;31738;50.188;8.524;2023-07-13T01:44:30;4.78;;;1.13;;
46006;SDS011;31738;50.188;8.524;2023-07-13T01:46:55;3.83;;;0.90;;
46006;SDS011;31738;50.188;8.524;2023-07-13T01:49:21;3.10;;;0.90;;
46006;SDS011;31738;50.188;8.524;2023-07-13T01:51:48;4.75;;;1.10;;
46006;SDS011;31738;50.188;8.524;2023-07-13T01:54:14;4.03;;;1.10;;
46006;SDS011;31738;50.188;8.524;2023-07-13T01:56:39;3.60;;;1.08;;
46006;SDS011;31738;50.188;8.524;2023-07-13T01:59:07;3.85;;;1.00;;
46006;SDS011;31738;50.188;8.524;2023-07-13T02:01:33;6.72;;;1.15;;
46006;SDS011;31738;50.188;8.524;2023-07-13T02:03:58;1.67;;;0.70;;
46006;SDS011;31738;50.188;8.524;2023-07-13T02:06:24;3.22;;;0.88;;
46006;SDS011;31738;50.188;8.524;2023-07-13T02:08:49;5.75;;;1.02;;
46006;SDS011;31738;50.188;8.524;2023-07-13T02:11:15;1.48;;;0.80;;
46006;SDS011;31738;50.188;8.524;2023-07-13T02:13:40;4.85;;;0.90;;
46006;SDS011;31738;50.188;8.524;2023-07-13T02:16:06;3.83;;;0.90;;
46006;SDS011;31738;50.188;8.524;2023-07-13T02:18:31;2.58;;;0.90;;
46006;SDS011;31738;50.188;8.524;2023-07-13T02:20:57;3.72;;;0.98;;
46006;SDS011;31738;50.188;8.524;2023-07-13T02:23:23;2.40;;;0.90;;
46006;SDS011;31738;50.188;8.524;2023-07-13T02:25:49;1.77;;;0.90;;
46006;SDS011;31738;50.188;8.524;2023-07-13T02:28:19;3.80;;;0.95;;
46006;SDS011;31738;50.188;8.524;2023-07-13T02:30:44;3.05;;;0.55;;
46006;SDS011;31738;50.188;8.524;2023-07-13T02:33:09;2.70;;;0.70;;
46006;SDS011;31738;50.188;8.524;2023-07-13T02:35:35;2.05;;;0.50;;
46006;SDS011;31738;50.188;8.524;2023-07-13T02:38:00;2.67;;;0.80;;
46006;SDS011;31738;50.188;8.524;2023-07-13T02:40:26;2.80;;;0.73;;
46006;SDS011;31738;50.188;8.524;2023-07-13T02:42:51;3.50;;;0.60;;
46006;SDS011;31738;50.188;8.524;2023-07-13T02:45:17;2.85;;;0.77;;
46006;SDS011;31738;50.188;8.524;2023-07-13T02:47:54;4.13;;;0.68;;
46006;SDS011;31738;50.188;8.524;2023-07-13T02:50:20;4.03;;;0.77;;
46006;SDS011;31738;50.188;8.524;2023-07-13T02:52:45;3.58;;;0.85;;
46006;SDS011;31738;50.188;8.524;2023-07-13T02:55:11;2.75;;;0.80;;
46006;SDS011;31738;50.188;8.524;2023-07-13T02:57:36;1.65;;;0.70;;
46006;SDS011;31738;50.188;8.524;2023-07-13T03:00:02;1.55;;;0.65;;
46006;SDS011;31738;50.188;8.524;2023-07-13T03:02:33;1.83;;;0.60;;
46006;SDS011;31738;50.188;8.524;2023-07-13T03:04:59;3.10;;;0.65;;
46006;SDS011;31738;50.188;8.524;2023-07-13T03:07:25;4.03;;;0.85;;
46006;SDS011;31738;50.188;8.524;2023-07-13T03:09:55;1.45;;;0.60;;
46006;SDS011;31738;50.188;8.524;2023-07-13T03:12:24;3.97;;;0.90;;
46006;SDS011;31738;50.188;8.524;2023-07-13T03:14:50;3.72;;;1.15;;
46006;SDS011;31738;50.188;8.524;2023-07-13T03:17:16;3.80;;;0.88;;
46006;SDS011;31738;50.188;8.524;2023-07-13T03:19:42;2.83;;;1.10;;
46006;SDS011;31738;50.188;8.524;2023-07-13T03:22:09;7.15;;;1.15;;
46006;SDS011;31738;50.188;8.524;2023-07-13T03:24:36;4.78;;;1.10;;
46006;SDS011;31738;50.188;8.524;2023-07-13T03:27:04;3.50;;;1.20;;
46006;SDS011;31738;50.188;8.524;2023-07-13T03:29:31;3.47;;;1.08;;
46006;SDS011;31738;50.188;8.524;2023-07-13T03:31:56;3.67;;;1.10;;
46006;SDS011;31738;50.188;8.524;2023-07-13T03:34:22;1.75;;;1.08;;
46006;SDS011;31738;50.188;8.524;2023-07-13T03:36:48;2.58;;;1.00;;
46006;SDS011;31738;50.188;8.524;2023-07-13T03:39:14;5.40;;;1.20;;
46006;SDS011;31738;50.188;8.524;2023-07-13T03:41:46;5.15;;;1.30;;
46006;SDS011;31738;50.188;8.524;2023-07-13T03:44:12;5.22;;;1.25;;
46006;SDS011;31738;50.188;8.524;2023-07-13T03:46:38;4.85;;;1.50;;
46006;SDS011;31738;50.188;8.524;2023-07-13T03:49:04;3.63;;;1.35;;
46006;SDS011;31738;50.188;8.524;2023-07-13T03:51:30;4.90;;;1.00;;
46006;SDS011;31738;50.188;8.524;2023-07-13T03:53:56;3.33;;;1.27;;
46006;SDS011;31738;50.188;8.524;2023-07-13T03:56:22;5.38;;;1.40;;
46006;SDS011;31738;50.188;8.524;2023-07-13T03:58:49;7.03;;;1.27;;
46006;SDS011;31738;50.188;8.524;2023-07-13T04:01:18;4.50;;;1.30;;
46006;SDS011;31738;50.188;8.524;2023-07-13T04:03:45;3.60;;;1.20;;
46006;SDS011;31738;50.188;8.524;2023-07-13T04:06:22;3.25;;;1.13;;
46006;SDS011;31738;50.188;8.524;2023-07-13T04:08:51;2.97;;;1.10;;
46006;SDS011;31738;50.188;8.524;2023-07-13T04:11:19;5.00;;;1.48;;
46006;SDS011;31738;50.188;8.524;2023-07-13T04:13:46;4.78;;;1.60;;
46006;SDS011;31738;50.188;8.524;2023-07-13T04:16:13;5.28;;;1.30;;
46006;SDS011;31738;50.188;8.524;2023-07-13T04:18:42;4.93;;;1.10;;
46006;SDS011;31738;50.188;8.524;2023-07-13T04:21:08;4.00;;;1.50;;
46006;SDS011;31738;50.188;8.524;2023-07-13T04:23:34;4.35;;;1.42;;
46006;SDS011;31738;50.188;8.524;2023-07-13T04:26:01;5.18;;;1.45;;
46006;SDS011;31738;50.188;8.524;2023-07-13T04:28:27;5.47;;;1.52;;
46006;SDS011;31738;50.188;8.524;2023-07-13T04:30:52;6.18;;;1.67;;
46006;SDS011;31738;50.188;8.524;2023-07-13T04:33:18;5.93;;;1.17;;
46006;SDS011;31738;50.188;8.524;2023-07-13T04:35:51;7.70;;;1.38;;
46006;SDS011;31738;50.188;8.524;2023-07-13T04:38:20;7.93;;;1.45;;
46006;SDS011;31738;50.188;8.524;2023-07-13T04:40:45;4.05;;;1.20;;
46006;SDS011;31738;50.188;8.524;2023-07-13T04:43:12;4.72;;;1.45;;
46006;SDS011;31738;50.188;8.524;2023-07-13T04:45:38;4.95;;;1.40;;
46006;SDS011;31738;50.188;8.524;2023-07-13T04:48:03;4.35;;;1.67;;
46006;SDS011;31738;50.188;8.524;2023-07-13T04:50:29;8.38;;;1.55;;
46006;SDS011;31738;50.188;8.524;2023-07-13T04:52:54;12.27;;;1.40;;
46006;SDS011;31738;50.188;8.524;2023-07-13T04:55:20;5.32;;;1.10;;
46006;SDS011;31738;50.188;8.524;2023-07-13T04:57:46;6.68;;;1.55;;
46006;SDS011;31738;50.188;8.524;2023-07-13T05:00:12;3.95;;;1.50;;
46006;SDS011;31738;50.188;8.524;2023-07-13T05:02:39;3.72;;;1.20;;
46006;SDS011;31738;50.188;8.524;2023-07-13T05:05:05;4.43;;;1.40;;
46006;SDS011;31738;50.188;8.524;2023-07-13T05:07:31;5.20;;;1.67;;
46006;SDS011;31738;50.188;8.524;2023-07-13T05:09:58;4.85;;;1.35;;
46006;SDS011;31738;50.188;8.524;2023-07-13T05:12:25;5.78;;;1.80;;
46006;SDS011;31738;50.188;8.524;2023-07-13T05:14:51;4.72;;;1.30;;
46006;SDS011;31738;50.188;8.524;2023-07-13T05:17:16;2.65;;;1.25;;
46006;SDS011;31738;50.188;8.524;2023-07-13T05:19:42;2.92;;;1.50;;
46006;SDS011;31738;50.188;8.524;2023-07-13T05:22:07;5.97;;;1.42;;
46006;SDS011;31738;50.188;8.524;2023-07-13T05:24:33;3.28;;;1.30;;
46006;SDS011;31738;50.188;8.524;2023-07-13T05:26:59;4.88;;;1.25;;
46006;SDS011;31738;50.188;8.524;2023-07-13T05:29:24;5.05;;;1.08;;
46006;SDS011;31738;50.188;8.524;2023-07-13T05:31:50;5.38;;;1.20;;
46006;SDS011;31738;50.188;8.524;2023-07-13T05:34:15;7.03;;;1.48;;
46006;SDS011;31738;50.188;8.524;2023-07-13T05:36:41;3.45;;;1.20;;
46006;SDS011;31738;50.188;8.524;2023-07-13T05:39:07;4.15;;;1.30;;
46006;SDS011;31738;50.188;8.524;2023-07-13T05:41:32;3.80;;;1.10;;
46006;SDS011;31738;50.188;8.524;2023-07-13T05:43:58;1.75;;;0.73;;
46006;SDS011;31738;50.188;8.524;2023-07-13T05:46:23;4.00;;;0.90;;
46006;SDS011;31738;50.188;8.524;2023-07-13T05:48:49;2.38;;;0.82;;
46006;SDS011;31738;50.188;8.524;2023-07-13T05:51:15;2.35;;;0.90;;
46006;SDS011;31738;50.188;8.524;2023-07-13T05:53:40;3.58;;;0.80;;
46006;SDS011;31738;50.188;8.524;2023-07-13T05:56:06;3.53;;;0.90;;
46006;SDS011;31738;50.188;8.524;2023-07-13T05:58:31;3.88;;;0.90;;
46006;SDS011;31738;50.188;8.524;2023-07-13T06:01:01;3.13;;;0.75;;
46006;SDS011;31738;50.188;8.524;2023-07-13T06:03:28;4.82;;;1.05;;
46006;SDS011;31738;50.188;8.524;2023-07-13T06:05:54;4.35;;;0.95;;
46006;SDS011;31738;50.188;8.524;2023-07-13T06:08:20;8.73;;;1.20;;
46006;SDS011;31738;50.188;8.524;2023-07-13T06:10:45;2.60;;;0.80;;
46006;SDS011;31738;50.188;8.524;2023-07-13T06:13:11;3.97;;;1.38;;
46006;SDS011;31738;50.188;8.524;2023-07-13T06:15:36;2.65;;;0.80;;
46006;SDS011;31738;50.188;8.524;2023-07-13T06:18:01;2.30;;;0.90;;
46006;SDS011;31738;50.188;8.524;2023-07-13T06:20:28;4.70;;;0.98;;
46006;SDS011;31738;50.188;8.524;2023-07-13T06:22:54;4.70;;;1.00;;
46006;SDS011;31738;50.188;8.524;2023-07-13T06:25:19;3.42;;;1.00;;
46006;SDS011;31738;50.188;8.524;2023-07-13T06:27:45;3.97;;;0.93;;
46006;SDS011;31738;50.188;8.524;2023-07-13T06:30:11;5.45;;;0.95;;
46006;SDS011;31738;50.188;8.524;2023-07-13T06:32:37;4.50;;;0.90;;
46006;SDS011;31738;50.188;8.524;2023-07-13T06:35:03;3.38;;;1.23;;
46006;SDS011;31738;50.188;8.524;2023-07-13T06:37:29;3.35;;;0.70;;
46006;SDS011;31738;50.188;8.524;2023-07-13T06:39:54;2.55;;;0.77;;
46006;SDS011;31738;50.188;8.524;2023-07-13T06:42:19;2.13;;;0.85;;
46006;SDS011;31738;50.188;8.524;2023-07-13T06:44:45;3.60;;;0.73;;
46006;SDS011;31738;50.188;8.524;2023-07-13T06:47:10;3.58;;;0.98;;
46006;SDS011;31738;50.188;8.524;2023-07-13T06:49:36;3.72;;;1.00;;
46006;SDS011;31738;50.188;8.524;2023-07-13T06:52:01;1.00;;;0.90;;
46006;SDS011;31738;50.188;8.524;2023-07-13T06:54:27;2.30;;;0.95;;
46006;SDS011;31738;50.188;8.524;2023-07-13T06:56:53;1.65;;;0.70;;
46006;SDS011;31738;50.188;8.524;2023-07-13T06:59:18;4.28;;;0.80;;
46006;SDS011;31738;50.188;8.524;2023-07-13T07:01:44;3.35;;;0.90;;
46006;SDS011;31738;50.188;8.524;2023-07-13T07:04:09;3.53;;;0.85;;
46006;SDS011;31738;50.188;8.524;2023-07-13T07:06:35;2.83;;;0.60;;
46006;SDS011;31738;50.188;8.524;2023-07-13T07:09:00;3.75;;;0.70;;
46006;SDS011;31738;50.188;8.524;2023-07-13T07:11:26;3.22;;;0.70;;
46006;SDS011;31738;50.188;8.524;2023-07-13T07:13:52;3.53;;;1.00;;
46006;SDS011;31738;50.188;8.524;2023-07-13T07:16:18;2.20;;;0.65;;
46006;SDS011;31738;50.188;8.524;2023-07-13T07:18:44;1.98;;;0.70;;
46006;SDS011;31738;50.188;8.524;2023-07-13T07:21:11;1.70;;;0.63;;
46006;SDS011;31738;50.188;8.524;2023-07-13T07:23:37;2.95;;;0.60;;
46006;SDS011;31738;50.188;8.524;2023-07-13T07:26:02;0.95;;;0.57;;
46006;SDS011;31738;50.188;8.524;2023-07-13T07:28:28;3.15;;;1.15;;
46006;SDS011;31738;50.188;8.524;2023-07-13T07:30:54;2.08;;;0.60;;
46006;SDS011;31738;50.188;8.524;2023-07-13T07:33:21;4.20;;;0.70;;
46006;SDS011;31738;50.188;8.524;2023-07-13T07:35:47;1.17;;;0.68;;
46006;SDS011;31738;50.188;8.524;2023-07-13T07:38:13;0.93;;;0.60;;
46006;SDS011;31738;50.188;8.524;2023-07-13T07:40:39;2.55;;;0.60;;
46006;SDS011;31738;50.188;8.524;2023-07-13T07:43:06;2.50;;;0.60;;
46006;SDS011;31738;50.188;8.524;2023-07-13T07:45:31;0.95;;;0.65;;
46006;SDS011;31738;50.188;8.524;2023-07-13T07:47:57;1.77;;;0.60;;
46006;SDS011;31738;50.188;8.524;2023-07-13T07:50:24;1.85;;;0.68;;
46006;SDS011;31738;50.188;8.524;2023-07-13T07:52:50;0.80;;;0.50;;
46006;SDS011;31738;50.188;8.524;2023-07-13T07:55:16;2.83;;;0.80;;
46006;SDS011;31738;50.188;8.524;2023-07-13T07:57:42;2.45;;;0.70;;
46006;SDS011;31738;50.188;8.524;2023-07-13T08:00:08;1.48;;;0.68;;
46006;SDS011;31738;50.188;8.524;2023-07-13T08:02:39;3.08;;;0.70;;
46006;SDS011;31738;50.188;8.524;2023-07-13T08:05:07;2.95;;;0.70;;
46006;SDS011;31738;50.188;8.524;2023-07-13T08:07:33;5.18;;;0.70;;
46006;SDS011;31738;50.188;8.524;2023-07-13T08:09:59;3.47;;;0.70;;
46006;SDS011;31738;50.188;8.524;2023-07-13T08:12:24;3.20;;;0.90;;
46006;SDS011;31738;50.188;8.524;2023-07-13T08:14:50;1.23;;;0.65;;
46006;SDS011;31738;50.188;8.524;2023-07-13T08:17:22;2.60;;;0.88;;
46006;SDS011;31738;50.188;8.524;2023-07-13T08:19:49;3.42;;;0.80;;
46006;SDS011;31738;50.188;8.524;2023-07-13T08:22:14;3.67;;;0.70;;
46006;SDS011;31738;50.188;8.524;2023-07-13T08:24:40;2.22;;;0.88;;
46006;SDS011;31738;50.188;8.524;2023-07-13T08:27:07;2.22;;;0.77;;
46006;SDS011;31738;50.188;8.524;2023-07-13T08:29:33;3.78;;;0.90;;
46006;SDS011;31738;50.188;8.524;2023-07-13T08:31:59;2.83;;;0.90;;
46006;SDS011;31738;50.188;8.524;2023-07-13T08:34:24;1.88;;;0.77;;
46006;SDS011;31738;50.188;8.524;2023-07-13T08:36:50;1.83;;;0.85;;
46006;SDS011;31738;50.188;8.524;2023-07-13T08:39:15;5.72;;;0.90;;
46006;SDS011;31738;50.188;8.524;2023-07-13T08:41:41;2.35;;;1.05;;
46006;SDS011;31738;50.188;8.524;2023-07-13T08:44:07;3.03;;;0.77;;
46006;SDS011;31738;50.188;8.524;2023-07-13T08:46:45;2.70;;;0.68;;
46006;SDS011;31738;50.188;8.524;2023-07-13T08:49:15;1.50;;;0.60;;
46006;SDS011;31738;50.188;8.524;2023-07-13T08:51:45;3.35;;;0.70;;
46006;SDS011;31738;50.188;8.524;2023-07-13T08:54:33;2.72;;;0.60;;
46006;SDS011;31738;50.188;8.524;2023-07-13T08:57:05;0.50;;;0.50;;
46006;SDS011;31738;50.188;8.524;2023-07-13T08:59:40;3.72;;;0.73;;
46006;SDS011;31738;50.188;8.524;2023-07-13T09:04:59;2.05;;;0.68;;
46006;SDS011;31738;50.188;8.524;2023-07-13T09:07:31;2.33;;;0.65;;
46006;SDS011;31738;50.188;8.524;2023-07-13T09:10:17;0.88;;;0.50;;
46006;SDS011;31738;50.188;8.524;2023-07-13T09:15:35;2.45;;;0.65;;
46006;SDS011;31738;50.188;8.524;2023-07-13T09:20:56;1.55;;;0.55;;
46006;SDS011;31738;50.188;8.524;2023-07-13T09:23:27;1.80;;;0.57;;
46006;SDS011;31738;50.188;8.524;2023-07-13T09:25:58;3.92;;;0.70;;
46006;SDS011;31738;50.188;8.524;2023-07-13T09:28:29;1.80;;;0.60;;
46006;SDS011;31738;50.188;8.524;2023-07-13T09:31:10;1.98;;;0.80;;
46006;SDS011;31738;50.188;8.524;2023-07-13T09:33:39;1.75;;;0.75;;
46006;SDS011;31738;50.188;8.524;2023-07-13T09:36:16;1.20;;;0.50;;
46006;SDS011;31738;50.188;8.524;2023-07-13T09:38:44;0.70;;;0.47;;
46006;SDS011;31738;50.188;8.524;2023-07-13T09:46:38;2.25;;;0.60;;
46006;SDS011;31738;50.188;8.524;2023-07-13T09:49:12;3.15;;;0.63;;
46006;SDS011;31738;50.188;8.524;2023-07-13T09:51:40;3.20;;;0.90;;
46006;SDS011;31738;50.188;8.524;2023-07-13T09:54:20;2.13;;;0.70;;
46006;SDS011;31738;50.188;8.524;2023-07-13T09:56:53;1.73;;;0.80;;
46006;SDS011;31738;50.188;8.524;2023-07-13T09:59:23;1.13;;;0.68;;
46006;SDS011;31738;50.188;8.524;2023-07-13T10:01:52;3.35;;;0.88;;
46006;SDS011;31738;50.188;8.524;2023-07-13T10:04:18;1.70;;;0.80;;
46006;SDS011;31738;50.188;8.524;2023-07-13T10:06:45;2.00;;;1.05;;
46006;SDS011;31738;50.188;8.524;2023-07-13T10:09:15;1.95;;;0.80;;
46006;SDS011;31738;50.188;8.524;2023-07-13T10:11:41;1.98;;;0.82;;
46006;SDS011;31738;50.188;8.524;2023-07-13T10:14:18;3.55;;;0.80;;
46006;SDS011;31738;50.188;8.524;2023-07-13T10:16:48;2.45;;;0.80;;
46006;SDS011;31738;50.188;8.524;2023-07-13T10:19:29;2.78;;;0.82;;
46006;SDS011;31738;50.188;8.524;2023-07-13T10:24:26;2.72;;;0.90;;
46006;SDS011;31738;50.188;8.524;2023-07-13T10:27:00;3.00;;;0.88;;
46006;SDS011;31738;50.188;8.524;2023-07-13T10:29:32;1.90;;;0.65;;
46006;SDS011;31738;50.188;8.524;2023-07-13T10:32:02;1.95;;;1.00;;
46006;SDS011;31738;50.188;8.524;2023-07-13T10:34:34;2.67;;;1.00;;
46006;SDS011;31738;50.188;8.524;2023-07-13T10:37:00;2.38;;;0.90;;
46006;SDS011;31738;50.188;8.524;2023-07-13T10:39:27;2.13;;;1.05;;
46006;SDS011;31738;50.188;8.524;2023-07-13T10:41:55;1.58;;;0.98;;
46006;SDS011;31738;50.188;8.524;2023-07-13T10:44:25;2.58;;;1.10;;
46006;SDS011;31738;50.188;8.524;2023-07-13T10:47:00;3.42;;;0.60;;
46006;SDS011;31738;50.188;8.524;2023-07-13T10:49:30;2.63;;;1.10;;
46006;SDS011;31738;50.188;8.524;2023-07-13T10:51:56;2.47;;;1.00;;
46006;SDS011;31738;50.188;8.524;2023-07-13T10:54:26;2.25;;;0.75;;
46006;SDS011;31738;50.188;8.524;2023-07-13T10:57:08;3.78;;;1.15;;
46006;SDS011;31738;50.188;8.524;2023-07-13T10:59:38;2.30;;;1.17;;
46006;SDS011;31738;50.188;8.524;2023-07-13T11:02:10;3.95;;;1.17;;
46006;SDS011;31738;50.188;8.524;2023-07-13T11:04:50;3.85;;;1.00;;
46006;SDS011;31738;50.188;8.524;2023-07-13T11:07:27;2.53;;;0.80;;
46006;SDS011;31738;50.188;8.524;2023-07-13T11:09:55;2.70;;;1.27;;
46006;SDS011;31738;50.188;8.524;2023-07-13T11:22:53;2.53;;;1.25;;
46006;SDS011;31738;50.188;8.524;2023-07-13T11:25:38;2.33;;;0.93;;
46006;SDS011;31738;50.188;8.524;2023-07-13T11:30:36;3.70;;;1.02;;
46006;SDS011;31738;50.188;8.524;2023-07-13T11:38:41;3.33;;;1.10;;
46006;SDS011;31738;50.188;8.524;2023-07-13T11:41:21;2.80;;;0.93;;
46006;SDS011;31738;50.188;8.524;2023-07-13T11:43:50;2.97;;;0.98;;
46006;SDS011;31738;50.188;8.524;2023-07-13T11:46:20;2.67;;;0.95;;
46006;SDS011;31738;50.188;8.524;2023-07-13T11:48:47;2.17;;;1.23;;
46006;SDS011;31738;50.188;8.524;2023-07-13T11:51:18;1.45;;;1.10;;
46006;SDS011;31738;50.188;8.524;2023-07-13T11:53:48;3.15;;;1.00;;
46006;SDS011;31738;50.188;8.524;2023-07-13T11:56:15;2.08;;;1.10;;
46006;SDS011;31738;50.188;8.524;2023-07-13T11:58:41;3.33;;;0.95;;
46006;SDS011;31738;50.188;8.524;2023-07-13T12:01:10;3.35;;;0.90;;
46006;SDS011;31738;50.188;8.524;2023-07-13T12:03:43;1.50;;;0.90;;
46006;SDS011;31738;50.188;8.524;2023-07-13T12:06:22;2.88;;;1.40;;
46006;SDS011;31738;50.188;8.524;2023-07-13T12:09:08;2.38;;;1.00;;
46006;SDS011;31738;50.188;8.524;2023-07-13T12:11:39;2.90;;;1.20;;
46006;SDS011;31738;50.188;8.524;2023-07-13T12:14:12;4.07;;;1.30;;
46006;SDS011;31738;50.188;8.524;2023-07-13T12:16:40;5.38;;;1.25;;
46006;SDS011;31738;50.188;8.524;2023-07-13T12:19:13;2.80;;;1.38;;
46006;SDS011;31738;50.188;8.524;2023-07-13T12:21:44;4.88;;;2.10;;
46006;SDS011;31738;50.188;8.524;2023-07-13T12:24:17;2.78;;;2.40;;
46006;SDS011;31738;50.188;8.524;2023-07-13T12:26:44;5.35;;;2.63;;
46006;SDS011;31738;50.188;8.524;2023-07-13T12:29:17;4.10;;;2.03;;
46006;SDS011;31738;50.188;8.524;2023-07-13T12:31:44;3.38;;;2.30;;
46006;SDS011;31738;50.188;8.524;2023-07-13T12:34:12;2.72;;;2.08;;
46006;SDS011;31738;50.188;8.524;2023-07-13T12:36:46;3.10;;;1.98;;
46006;SDS011;31738;50.188;8.524;2023-07-13T12:41:45;2.50;;;1.60;;
46006;SDS011;31738;50.188;8.524;2023-07-13T12:44:12;2.30;;;1.13;;
46006;SDS011;31738;50.188;8.524;2023-07-13T12:46:47;2.78;;;1.50;;
46006;SDS011;31738;50.188;8.524;2023-07-13T12:49:18;2.15;;;1.23;;
46006;SDS011;31738;50.188;8.524;2023-07-13T12:51:49;2.65;;;1.25;;
46006;SDS011;31738;50.188;8.524;2023-07-13T12:54:16;2.78;;;1.15;;
46006;SDS011;31738;50.188;8.524;2023-07-13T12:56:44;3.88;;;1.10;;
46006;SDS011;31738;50.188;8.524;2023-07-13T12:59:18;3.03;;;1.00;;
46006;SDS011;31738;50.188;8.524;2023-07-13T13:01:46;2.83;;;1.00;;
46006;SDS011;31738;50.188;8.524;2023-07-13T13:04:15;3.42;;;0.90;;
46006;SDS011;31738;50.188;8.524;2023-07-13T13:06:41;2.80;;;1.35;;
46006;SDS011;31738;50.188;8.524;2023-07-13T13:09:12;2.35;;;0.93;;
46006;SDS011;31738;50.188;8.524;2023-07-13T13:11:39;3.35;;;1.10;;
46006;SDS011;31738;50.188;8.524;2023-07-13T13:14:05;9.13;;;1.95;;
46006;SDS011;31738;50.188;8.524;2023-07-13T13:16:33;2.78;;;1.45;;
46006;SDS011;31738;50.188;8.524;2023-07-13T13:19:02;4.68;;;0.95;;
46006;SDS011;31738;50.188;8.524;2023-07-13T13:21:37;4.15;;;1.20;;
46006;SDS011;31738;50.188;8.524;2023-07-13T13:24:04;3.63;;;1.10;;
46006;SDS011;31738;50.188;8.524;2023-07-13T13:26:36;2.72;;;1.13;;
46006;SDS011;31738;50.188;8.524;2023-07-13T13:29:03;3.20;;;1.15;;
46006;SDS011;31738;50.188;8.524;2023-07-13T13:31:36;4.95;;;1.10;;
46006;SDS011;31738;50.188;8.524;2023-07-13T13:34:01;2.83;;;0.98;;
46006;SDS011;31738;50.188;8.524;2023-07-13T13:36:27;9.10;;;1.60;;
46006;SDS011;31738;50.188;8.524;2023-07-13T13:38:52;5.50;;;1.55;;
46006;SDS011;31738;50.188;8.524;2023-07-13T13:41:18;6.53;;;1.40;;
46006;SDS011;31738;50.188;8.524;2023-07-13T13:43:43;2.95;;;1.00;;
46006;SDS011;31738;50.188;8.524;2023-07-13T13:46:13;3.50;;;1.20;;
46006;SDS011;31738;50.188;8.524;2023-07-13T13:48:42;2.00;;;0.95;;
46006;SDS011;31738;50.188;8.524;2023-07-13T13:51:13;2.83;;;0.90;;
46006;SDS011;31738;50.188;8.524;2023-07-13T13:53:41;2.90;;;1.13;;
46006;SDS011;31738;50.188;8.524;2023-07-13T13:56:08;2.17;;;1.13;;
46006;SDS011;31738;50.188;8.524;2023-07-13T13:58:33;3.78;;;1.02;;
46006;SDS011;31738;50.188;8.524;2023-07-13T14:00:59;3.92;;;1.10;;
46006;SDS011;31738;50.188;8.524;2023-07-13T14:03:25;4.13;;;0.98;;
46006;SDS011;31738;50.188;8.524;2023-07-13T14:05:53;4.28;;;0.95;;
46006;SDS011;31738;50.188;8.524;2023-07-13T14:08:20;2.83;;;1.23;;
46006;SDS011;31738;50.188;8.524;2023-07-13T14:10:47;4.50;;;1.20;;
46006;SDS011;31738;50.188;8.524;2023-07-13T14:13:20;1.85;;;1.00;;
46006;SDS011;31738;50.188;8.524;2023-07-13T14:18:17;3.10;;;0.95;;
46006;SDS011;31738;50.188;8.524;2023-07-13T14:20:43;3.00;;;1.13;;
46006;SDS011;31738;50.188;8.524;2023-07-13T14:23:12;2.85;;;1.08;;
46006;SDS011;31738;50.188;8.524;2023-07-13T14:25:44;3.85;;;1.40;;
46006;SDS011;31738;50.188;8.524;2023-07-13T14:28:24;4.30;;;1.02;;
46006;SDS011;31738;50.188;8.524;2023-07-13T14:30:51;2.80;;;1.10;;
46006;SDS011;31738;50.188;8.524;2023-07-13T14:33:19;2.78;;;1.13;;
46006;SDS011;31738;50.188;8.524;2023-07-13T14:35:45;2.80;;;0.98;;
46006;SDS011;31738;50.188;8.524;2023-07-13T14:38:15;4.25;;;1.00;;
46006;SDS011;31738;50.188;8.524;2023-07-13T14:40:43;3.03;;;1.10;;
46006;SDS011;31738;50.188;8.524;2023-07-13T14:43:15;11.73;;;2.22;;
46006;SDS011;31738;50.188;8.524;2023-07-13T14:45:49;3.83;;;1.65;;
46006;SDS011;31738;50.188;8.524;2023-07-13T14:48:16;2.42;;;1.20;;
46006;SDS011;31738;50.188;8.524;2023-07-13T14:50:45;5.05;;;1.40;;
46006;SDS011;31738;50.188;8.524;2023-07-13T14:53:12;4.38;;;1.23;;
46006;SDS011;31738;50.188;8.524;2023-07-13T14:55:38;2.80;;;1.13;;
46006;SDS011;31738;50.188;8.524;2023-07-13T14:58:04;1.65;;;1.00;;
46006;SDS011;31738;50.188;8.524;2023-07-13T15:00:29;3.28;;;1.25;;
46006;SDS011;31738;50.188;8.524;2023-07-13T15:02:57;2.00;;;1.00;;
46006;SDS011;31738;50.188;8.524;2023-07-13T15:05:25;2.72;;;0.90;;
46006;SDS011;31738;50.188;8.524;2023-07-13T15:07:56;1.27;;;0.80;;
46006;SDS011;31738;50.188;8.524;2023-07-13T15:10:27;3.22;;;1.20;;
46006;SDS011;31738;50.188;8.524;2023-07-13T15:12:58;3.28;;;1.17;;
46006;SDS011;31738;50.188;8.524;2023-07-13T15:15:27;4.18;;;1.25;;
46006;SDS011;31738;50.188;8.524;2023-07-13T15:17:54;3.47;;;1.05;;
46006;SDS011;31738;50.188;8.524;2023-07-13T15:20:25;2.38;;;1.15;;
46006;SDS011;31738;50.188;8.524;2023-07-13T15:22:54;1.88;;;0.90;;
46006;SDS011;31738;50.188;8.524;2023-07-13T15:25:24;1.58;;;0.85;;
46006;SDS011;31738;50.188;8.524;2023-07-13T15:27:51;2.95;;;1.08;;
46006;SDS011;31738;50.188;8.524;2023-07-13T15:30:18;4.28;;;1.20;;
46006;SDS011;31738;50.188;8.524;2023-07-13T15:32:44;2.35;;;1.20;;